Latest Weather Observations for Biloela

IDQ60801

Issued at 6:35 pm EST Saturday 25 October 2014 (issued every 30 minutes, with the page automatically refreshed every 10 minutes)

About weather observations | Map of weather stations | Latest weather observations for QLD | Other Formats
Station Details ID: 039089 Name: THANGOOL AIRPORT Lat: -24.49 Lon: 150.57 Height: 193.1 m
Data from the previous 72 hours. | See also: Recent months at Biloela
Date/Time
EST
Temp
°C
App
Temp
°C
Dew
Point
Rel
Hum
%
Delta-T
°C
Wind Press
QNH
hPa
Press
MSL
hPa
Rain
since 9 am
mm
Dir
 
Spd
km/h
Gust
km/h
Spd
kts
Gust
kts
25/06:30pm 27.5 26.0 14.2 44 8.0 NNE 15 22 8 12 1016.7 - 0.0
25/06:00pm 28.6 27.8 11.6 34 9.9 NNW 7 9 4 5 1016.3 1015.5 0.0
25/05:30pm 30.5 29.4 11.9 31 10.9 NNW 9 11 5 6 1016.0 - 0.0
25/05:00pm 31.3 30.1 11.7 30 11.5 WNW 9 11 5 6 1015.7 - 0.0
25/04:30pm 31.7 31.2 12.0 30 11.7 W 6 13 3 7 1015.8 - 0.0
25/04:00pm 31.0 30.3 11.9 31 11.3 NNW 7 11 4 6 1015.9 - 0.0
25/03:30pm 31.9 30.7 11.7 29 11.9 WNW 9 13 5 7 1016.0 - 0.0
25/03:00pm 32.2 31.4 12.9 31 11.6 NNW 9 19 5 10 1016.2 1015.4 0.0
25/02:30pm 31.2 30.1 12.1 31 11.3 S 9 13 5 7 1016.6 - 0.0
25/02:00pm 31.0 29.7 12.4 32 11.1 WSW 11 17 6 9 1017.1 - 0.0
25/01:30pm 30.4 30.1 13.2 35 10.3 N 7 20 4 11 1017.5 - 0.0
25/01:00pm 29.7 28.9 13.0 35 10.0 N 9 17 5 9 1018.1 - 0.0
25/12:30pm 29.0 29.1 14.4 41 8.9 W 7 15 4 8 1018.8 - 0.0
25/12:00pm 28.3 28.2 13.8 41 8.7 W 7 15 4 8 1019.4 1018.6 0.0
25/11:30am 27.3 26.7 14.7 46 7.7 NW 11 19 6 10 1019.9 - 0.0
25/11:00am 26.3 25.4 13.8 46 7.5 NNW 11 20 6 11 1020.5 - 0.0
25/10:30am 25.7 25.0 14.2 49 6.9 N 11 17 6 9 1021.1 - 0.0
25/10:00am 24.6 24.1 13.8 51 6.4 N 9 17 5 9 1021.7 - 0.0
25/09:30am 24.1 24.1 14.2 54 5.9 NW 7 15 4 8 1022.1 - 0.0
25/09:00am 23.2 23.3 14.5 58 5.2 NW 7 22 4 12 1022.4 1021.7 0.0
25/08:30am 22.2 21.5 14.3 61 4.7 N 11 17 6 9 1022.4 - 0.0
25/08:00am 21.2 20.8 14.1 64 4.2 NW 9 13 5 7 1022.3 - 0.0
25/07:30am 20.1 21.5 14.5 70 3.3 CALM 0 0 0 0 1022.3 - 0.0
25/07:00am 18.3 18.2 13.8 75 2.6 E 7 11 4 6 1022.0 - 0.0
25/06:30am 15.9 15.1 12.8 82 1.7 E 9 11 5 6 1021.8 - 0.0
25/06:00am 14.1 13.0 12.1 88 1.1 E 9 9 5 5 1021.6 1020.9 0.0
25/05:30am 12.7 11.7 11.1 90 0.8 E 7 7 4 4 1021.2 - 0.0
25/05:00am 13.2 12.6 11.8 91 0.8 E 6 9 3 5 1020.7 - 0.0
25/04:30am 13.3 13.9 11.9 91 0.8 CALM 0 0 0 0 1020.4 - 0.0
25/04:00am 13.0 13.4 11.4 90 0.9 CALM 0 0 0 0 1020.4 - 0.0
25/03:30am 13.0 13.4 11.4 90 0.9 CALM 0 0 0 0 1020.2 - 0.0
25/03:00am 13.1 13.4 11.0 87 1.1 CALM 0 0 0 0 1019.8 1019.0 0.0
25/02:30am 13.8 14.4 11.8 88 1.1 CALM 0 0 0 0 1020.0 - 0.0
25/02:00am 14.0 14.2 11.9 87 1.1 NNW 2 7 1 4 1020.0 - 0.0
25/01:30am 13.8 13.0 11.0 83 1.5 NW 6 7 3 4 1020.4 - 0.0
25/01:00am 14.5 13.6 11.5 82 1.6 NW 7 7 4 4 1020.7 - 0.0
25/12:30am 14.7 13.9 11.7 82 1.6 NNW 7 7 4 4 1020.9 - 0.0
25/12:00am 14.7 13.7 10.9 78 2.0 NNW 7 9 4 5 1021.2 1020.5 0.0
 
Date/Time
EST
Temp
°C
App
Temp
°C
Dew
Point
Rel
Hum
%
Delta-T
°C
Wind Press
QNH
hPa
Press
MSL
hPa
Rain
since 9 am
mm
Dir
 
Spd
km/h
Gust
km/h
Spd
kts
Gust
kts
24/11:30pm 16.0 15.6 11.2 73 2.6 NW 4 7 2 4 1021.3 - 0.0
24/11:00pm 17.3 17.8 11.6 69 3.1 CALM 0 0 0 0 1021.4 - 0.0
24/10:30pm 17.7 17.0 11.5 67 3.4 N 6 7 3 4 1021.5 - 0.0
24/10:00pm 19.7 18.6 13.2 66 3.7 N 11 15 6 8 1021.2 - 0.0
24/09:30pm 19.4 18.8 12.4 64 3.9 N 7 9 4 5 1021.1 - 0.0
24/09:00pm 19.8 20.0 11.8 60 4.5 ENE 2 7 1 4 1020.8 1020.0 0.0
24/08:30pm 20.9 20.4 12.1 57 5.0 NNE 6 9 3 5 1020.5 - 0.0
24/08:00pm 21.7 21.3 12.5 56 5.3 SE 6 13 3 7 1020.3 - 0.0
24/07:30pm 22.7 19.9 12.6 53 5.8 NE 19 24 10 13 1019.8 - 0.0
24/07:00pm 23.7 20.6 13.3 52 6.1 NE 22 32 12 17 1019.3 - 0.0
24/06:30pm 24.5 22.0 13.4 50 6.5 NE 19 24 10 13 1019.0 - 0.0
24/06:00pm 26.1 23.3 13.2 44 7.6 NE 20 26 11 14 1018.5 1017.7 0.0
24/05:30pm 27.8 25.6 13.3 40 8.6 NE 17 24 9 13 1018.1 - 0.0
24/05:00pm 28.9 25.8 12.3 36 9.8 NE 20 24 11 13 1017.6 - 0.0
24/04:30pm 29.7 27.5 12.2 34 10.3 N 15 20 8 11 1017.4 - 0.0
24/04:00pm 30.9 28.2 11.8 31 11.2 N 17 26 9 14 1017.2 - 0.0
24/03:30pm 31.3 29.9 12.2 31 11.3 N 11 22 6 12 1017.0 - 0.0
24/03:00pm 31.0 29.2 10.9 29 11.7 NNE 11 20 6 11 1017.4 1016.7 0.0
24/02:30pm 30.5 28.2 10.5 29 11.5 N 13 20 7 11 1017.7 - 0.0
24/02:00pm 31.1 29.6 10.4 28 11.9 N 9 17 5 9 1018.2 - 0.0
24/01:30pm 31.3 29.6 11.1 29 11.8 S 11 19 6 10 1018.6 - 0.0
24/01:00pm 30.3 28.2 9.8 28 11.7 ENE 11 17 6 9 1019.0 - 0.0
24/12:30pm 29.6 27.6 10.2 30 11.1 NW 11 22 6 12 1019.6 - 0.0
24/12:00pm 29.8 28.8 10.9 31 10.9 WSW 7 20 4 11 1020.1 1019.3 0.0
24/11:30am 27.9 26.4 10.6 34 9.9 WSW 9 15 5 8 1020.6 - 0.0
24/11:00am 27.2 26.3 11.2 36 9.2 NNE 7 15 4 8 1021.2 - 0.0
24/10:30am 25.7 23.8 9.1 35 9.1 NE 9 13 5 7 1021.7 - 0.0
24/10:00am 25.0 23.7 11.2 42 7.8 S 9 13 5 7 1021.9 - 0.0
24/09:30am 24.3 23.5 10.9 43 7.5 NE 6 11 3 6 1022.2 - 0.0
24/09:00am 23.1 23.0 13.3 54 5.7 S 6 9 3 5 1022.5 1021.8 0.0
24/08:30am 21.6 21.8 13.0 58 5.0 E 4 9 2 5 1022.6 - 0.0
24/08:00am 20.2 20.1 13.4 65 3.9 SSW 6 9 3 5 1022.5 - 0.0
24/07:30am 18.9 18.7 13.1 69 3.3 E 6 9 3 5 1022.3 - 0.0
24/07:00am 16.9 16.5 13.0 78 2.2 ESE 7 9 4 5 1022.1 - 0.0
24/06:30am 14.8 14.4 12.3 85 1.4 E 6 7 3 4 1021.8 - 0.0
24/06:00am 13.0 12.1 11.4 90 0.9 E 7 9 4 5 1021.7 1021.0 0.0
24/05:30am 12.2 10.8 10.8 91 0.7 ESE 9 11 5 6 1021.4 - 0.0
24/05:00am 12.4 11.1 11.3 93 0.6 ESE 9 11 5 6 1021.3 - 0.0
24/04:30am 11.4 9.7 10.0 91 0.7 E 9 11 5 6 1020.9 - 0.0
24/04:00am 11.7 10.1 10.3 91 0.7 E 9 9 5 5 1020.8 - 0.0
24/03:30am 12.1 12.3 10.7 91 0.7 CALM 0 0 0 0 1020.5 - 0.0
24/03:00am 12.3 12.5 10.7 90 0.8 CALM 0 0 0 0 1020.4 1019.6 0.0
24/02:30am 12.5 12.7 10.6 88 1.0 CALM 0 0 0 0 1020.3 - 0.0
24/02:00am 13.3 13.7 11.4 88 1.0 CALM 0 0 0 0 1020.4 - 0.0
24/01:30am 13.7 14.1 11.4 86 1.2 CALM 0 0 0 0 1020.8 - 0.0
24/01:00am 14.2 13.4 11.2 82 1.6 NNE 6 7 3 4 1021.0 - 0.0
24/12:30am 15.5 15.1 12.4 82 1.7 N 6 7 3 4 1021.3 - 0.0
24/12:00am 16.2 15.4 11.8 75 2.4 N 7 7 4 4 1021.3 1020.6 0.0
 
Date/Time
EST
Temp
°C
App
Temp
°C
Dew
Point
Rel
Hum
%
Delta-T
°C
Wind Press
QNH
hPa
Press
MSL
hPa
Rain
since 9 am
mm
Dir
 
Spd
km/h
Gust
km/h
Spd
kts
Gust
kts
23/11:30pm 17.7 17.2 12.6 72 2.9 N 7 13 4 7 1021.1 - 0.0
23/11:00pm 17.4 17.4 12.3 72 2.8 NNE 4 7 2 4 1021.1 - 0.0
23/10:30pm 18.5 17.9 13.6 73 2.8 NNE 9 11 5 6 1021.1 - 0.0
23/10:00pm 18.5 17.8 13.1 71 3.1 NNE 9 13 5 7 1021.1 - 0.0
23/09:30pm 19.2 18.6 13.4 69 3.3 N 9 15 5 8 1020.7 - 0.0
23/09:00pm 19.5 18.8 13.2 67 3.6 NNE 9 13 5 7 1020.4 1019.6 0.0
23/08:30pm 20.1 19.6 12.6 62 4.3 NNE 7 11 4 6 1020.0 - 0.0
23/08:00pm 21.2 20.9 12.6 58 4.9 WSW 6 13 3 7 1019.8 - 0.0
23/07:30pm 21.9 18.2 12.7 56 5.3 NE 24 33 13 18 1019.0 - 0.0
23/07:00pm 22.7 19.2 12.3 52 6.0 NE 22 32 12 17 1018.6 - 0.0
23/06:30pm 24.4 21.2 11.4 44 7.4 NE 19 26 10 14 1018.0 - 0.0
23/06:00pm 25.8 22.6 11.2 40 8.3 NE 19 22 10 12 1017.3 1016.6 0.0
23/05:30pm 28.9 25.6 4.4 21 12.6 ESE 11 15 6 8 1016.9 - 0.0
23/05:00pm 29.4 26.1 4.8 21 12.8 ESE 11 20 6 11 1016.6 - 0.0
23/04:30pm 29.6 26.4 5.0 21 12.9 SE 11 20 6 11 1016.5 - 0.0
23/04:00pm 30.1 25.7 4.7 20 13.3 ESE 17 26 9 14 1016.4 - 0.0
23/03:30pm 30.6 25.6 3.6 18 13.9 E 19 26 10 14 1016.4 - 0.0
23/03:00pm 31.2 26.6 5.6 20 13.6 E 19 30 10 16 1016.6 1015.9 0.0
23/02:30pm 30.3 27.8 8.1 25 12.3 SE 11 17 6 9 1016.8 - 0.0
23/02:00pm 30.0 26.1 7.2 24 12.4 SSE 17 24 9 13 1017.3 - 0.0
23/01:30pm 29.6 25.8 7.5 25 12.1 S 17 26 9 14 1018.0 - 0.0
23/01:00pm 29.2 26.5 8.8 28 11.4 S 13 20 7 11 1018.5 - 0.0
23/12:30pm 28.8 26.8 10.0 31 10.7 SSE 11 17 6 9 1019.0 - 0.0
23/12:00pm 27.3 25.8 10.5 35 9.5 ESE 9 15 5 8 1019.6 1018.8 0.0
23/11:30am 26.2 25.2 10.4 37 8.9 S 6 15 3 8 1020.3 - 0.0
23/11:00am 25.2 24.0 10.3 39 8.3 SSE 7 15 4 8 1020.8 - 0.0
23/10:30am 24.5 23.0 10.4 41 7.9 NW 9 15 5 8 1021.3 - 0.0
23/10:00am 23.6 22.6 11.0 45 7.1 N 7 13 4 7 1021.8 - 0.0
23/09:30am 22.4 20.9 10.5 47 6.6 SSE 9 17 5 9 1022.2 - 0.0
23/09:00am 21.6 20.5 10.7 50 6.0 N 7 9 4 5 1022.5 1021.8 0.0
23/08:30am 20.7 19.6 10.8 53 5.5 WNW 7 9 4 5 1022.6 - 0.0
23/08:00am 20.2 19.2 11.1 56 5.0 ESE 7 11 4 6 1022.7 - 0.0
23/07:30am 18.5 17.9 11.8 65 3.7 E 6 9 3 5 1022.7 - 0.0
23/07:00am 15.8 15.0 11.6 76 2.3 E 7 9 4 5 1022.8 - 0.0
23/06:30am 13.3 13.5 10.7 84 1.4 CALM 0 6 0 3 1022.7 - 0.0
23/06:00am 11.2 9.5 9.8 91 0.7 E 9 13 5 7 1022.4 1021.7 0.0
23/05:30am 9.0 7.3 7.6 91 0.7 ESE 6 9 3 5 1022.2 - 0.0
23/05:00am 9.4 8.9 7.8 90 0.8 CALM 0 0 0 0 1022.2 - 0.0
23/04:30am 9.9 9.5 8.3 90 0.8 CALM 0 0 0 0 1021.9 - 0.0
23/04:00am 10.2 9.9 8.5 89 0.8 CALM 0 0 0 0 1021.5 - 0.0
23/03:30am 10.8 10.5 8.7 87 1.0 CALM 0 0 0 0 1021.4 - 0.0
23/03:00am 11.3 11.1 8.9 85 1.2 CALM 0 0 0 0 1021.2 1020.5 0.0
23/02:30am 11.1 10.8 8.7 85 1.2 CALM 0 0 0 0 1021.3 - 0.0
23/02:00am 12.1 11.6 9.5 84 1.3 ESE 2 7 1 4 1021.3 - 0.0
23/01:30am 13.7 12.8 11.4 86 1.2 E 7 9 4 5 1021.6 - 0.0
23/01:00am 12.2 12.0 9.2 82 1.5 CALM 0 6 0 3 1022.0 - 0.0
23/12:30am 13.2 13.1 9.6 79 1.9 CALM 0 0 0 0 1022.4 - 0.0
23/12:28am 13.1 13.0 9.5 79 1.9 CALM 0 0 0 0 1022.4 - 0.0
23/12:09am 13.8 14.0 10.6 81 1.7 CALM 0 0 0 0 1022.5 - 0.0
23/12:00am 13.2 13.0 9.1 76 2.1 CALM 0 0 0 0 1022.5 1021.8 0.0
 
Date/Time
EST
Temp
°C
App
Temp
°C
Dew
Point
Rel
Hum
%
Delta-T
°C
Wind Press
QNH
hPa
Press
MSL
hPa
Rain
since 9 am
mm
Dir
 
Spd
km/h
Gust
km/h
Spd
kts
Gust
kts
22/11:30pm 13.7 12.2 9.2 74 2.3 ESE 7 9 4 5 1022.4 - 0.0
22/11:00pm 15.2 14.1 9.8 70 2.8 SE 6 7 3 4 1022.4 - 0.0
22/10:30pm 16.7 17.0 10.8 68 3.2 CALM 0 0 0 0 1022.3 - 0.0
22/10:00pm 18.4 17.3 10.7 61 4.2 ESE 7 11 4 6 1022.0 - 0.0
22/09:30pm 18.3 17.1 11.6 65 3.7 ESE 9 13 5 7 1021.8 - 0.0
22/09:00pm 18.9 18.6 11.5 62 4.1 S 4 7 2 4 1021.6 1020.9 0.0
22/08:30pm 19.5 18.8 12.0 62 4.2 NNE 7 11 4 6 1021.2 - 0.0
22/08:00pm 20.2 18.7 9.2 49 5.9 E 7 9 4 5 1020.8 - 0.0
22/07:30pm 20.1 18.6 9.1 49 5.9 ENE 7 11 4 6 1020.6 - 0.0
22/07:00pm 21.0 19.0 8.6 45 6.6 E 9 11 5 6 1020.5 - 0.0

Other Formats:

Comma delimited format used in spreadsheet applications
http://www.bom.gov.au/fwo/IDQ60801/IDQ60801.94376.axf

JavaScript Object Notation format (JSON) in row-major order
http://www.bom.gov.au/fwo/IDQ60801/IDQ60801.94376.json